KEWR

Newark Liberty International Airport

Newark, New Jersey, USA
KEWR 171122Z 1712/1818 23005KT P6SM FEW080 SCT200 FM171500 21007KT P6SM FEW050 SCT150 SCT250 FM171800 16008KT P6SM VCSH SCT050 FM172200 17007KT P6SM SCT050 SCT150 BKN250 PROB30 1722/1801 4SM TSRA BKN030CB FM180100 20007KT 5SM SHRA BKN040 PROB30 1801/1803 TSRA BKN035CB FM180400 23005KT 5SM SHRA BKN030 FM181400 25008KT P6SM VCSH BKN060
Issued Valid From Valid To
Aug-17 @ 11:22 UTC
(4 hours ago)
Aug-17 @ 12:00 UTC
(3 hours ago)
Aug-18 @ 18:00 UTC
(-1 days ago)
Aug-17 @ 12:00 to Aug-17 @ 15:00
KEWR 171122Z 1712/1818 23005KT P6SM FEW080 SCT200
Wind Visibility Clouds
230° at 5 knots Greater than 6 miles
  • Few at 8,000' AGL
  • Scattered at 20,000' AGL
From Aug-17 @ 15:00 to Aug-17 @ 18:00
FM171500 21007KT P6SM FEW050 SCT150 SCT250
Wind Visibility Clouds
210° at 7 knots Greater than 6 miles
  • Few at 5,000' AGL
  • Scattered at 15,000' AGL
  • Scattered at 25,000' AGL
From Aug-17 @ 18:00 to Aug-17 @ 22:00
FM171800 16008KT P6SM VCSH SCT050
Wind Visibility Clouds
160° at 8 knots Greater than 6 miles
  • Scattered at 5,000' AGL
Probable  (Probability 30%) Aug-17 @ 22:00 to Aug-18 @ 01:00
PROB30 1722/1801 4SM TSRA BKN030CB
Visibility Clouds Conditions
4 miles
  • Broken at 3,000' AGL
  • Thunderstorm
  • Rain
From Aug-17 @ 22:00 to Aug-18 @ 01:00
FM172200 17007KT P6SM SCT050 SCT150 BKN250
Wind Visibility Clouds
170° at 7 knots Greater than 6 miles
  • Scattered at 5,000' AGL
  • Scattered at 15,000' AGL
  • Broken at 25,000' AGL
Probable  (Probability 30%) Aug-18 @ 01:00 to Aug-18 @ 03:00
PROB30 1801/1803 TSRA BKN035CB
Clouds Conditions
  • Broken at 3,500' AGL
  • Thunderstorm
  • Rain
From Aug-18 @ 01:00 to Aug-18 @ 04:00
FM180100 20007KT 5SM SHRA BKN040
Wind Visibility Clouds Conditions
200° at 7 knots 5 miles
  • Broken at 4,000' AGL
  • Rain
From Aug-18 @ 04:00 to Aug-18 @ 14:00
FM180400 23005KT 5SM SHRA BKN030
Wind Visibility Clouds Conditions
230° at 5 knots 5 miles
  • Broken at 3,000' AGL
  • Rain
From Aug-18 @ 14:00 to Aug-18 @ 18:00
FM181400 25008KT P6SM VCSH BKN060
Wind Visibility Clouds
250° at 8 knots Greater than 6 miles
  • Broken at 6,000' AGL
KEWR 171122Z 1712/1818 23005KT P6SM FEW080 SCT200 FM171500 21007KT P6SM FEW050 SCT150 SCT250 FM171800 16008KT P6SM VCSH SCT050 FM172200 17007KT P6SM SCT050 SCT150 BKN250 PROB30 1722/1801 4SM TSRA BKN030CB FM180100 20007KT 5SM SHRA BKN040 PROB30 1801/1803 TSRA BKN035CB FM180400 23005KT 5SM SHRA BKN030 FM181400 25008KT P6SM VCSH BKN060
Issued Aug-17 @ 11:22 UTC
(4 hours ago)
Valid From Aug-17 @ 12:00 UTC
(3 hours ago)
Valid To Aug-18 @ 18:00 UTC
(-1 days ago)
Aug-17 @ 12:00 - Aug-17 @ 15:00
Wind Visibility
230° at 5 knots Greater than 6 miles
Clouds
  • Few at 8,000' AGL
  • Scattered at 20,000' AGL
From Aug-17 @ 15:00 - Aug-17 @ 18:00
Wind Visibility
210° at 7 knots Greater than 6 miles
Clouds
  • Few at 5,000' AGL
  • Scattered at 15,000' AGL
  • Scattered at 25,000' AGL
From Aug-17 @ 18:00 - Aug-17 @ 22:00
Wind Visibility
160° at 8 knots Greater than 6 miles
Clouds
  • Scattered at 5,000' AGL
Probability 30% Probable Aug-17 @ 22:00 - Aug-18 @ 01:00
Clouds
  • Broken at 3,000' AGL
Conditions
  • Thunderstorm
  • Rain
From Aug-17 @ 22:00 - Aug-18 @ 01:00
Wind Visibility
170° at 7 knots Greater than 6 miles
Clouds
  • Scattered at 5,000' AGL
  • Scattered at 15,000' AGL
  • Broken at 25,000' AGL
Probability 30% Probable Aug-18 @ 01:00 - Aug-18 @ 03:00
Clouds
  • Broken at 3,500' AGL
Conditions
  • Thunderstorm
  • Rain
From Aug-18 @ 01:00 - Aug-18 @ 04:00
Wind Visibility
200° at 7 knots 5 miles
Clouds
  • Broken at 4,000' AGL
Conditions
  • Rain
From Aug-18 @ 04:00 - Aug-18 @ 14:00
Wind Visibility
230° at 5 knots 5 miles
Clouds
  • Broken at 3,000' AGL
Conditions
  • Rain
From Aug-18 @ 14:00 - Aug-18 @ 18:00
Wind Visibility
250° at 8 knots Greater than 6 miles
Clouds
  • Broken at 6,000' AGL